• Join FlightAware (Why Join?)
  • Login
  • US Flag 
03:47PM EDT


 

Airport Tracker/Info


-or-


 

Live Flight TrackerFlight Track Log ✈ JZA8439 ✈ 30-Aug-2013 ✈ CYQR - CYYC

Flight Track Log - Related Links

Times and Time Zones

All times are in EDT time to prevent confusion due to time zone crossing. See the JZA8439 flight status page for this flight to view local times or setup timezone preferences in your user account.

Time Position Orientation Groundspeed Altitude Reporting Facility
EDT Latitude Longitude Course Direction KTS MPH feet Rate Location/Type
03:06PM 50.4000 -104.7000 286° West 60 69 1,900  Level Winnipeg Center
03:07PM 50.4167 -104.7500 298° West 160 184 4,000 2,040 Climbing Winnipeg Center
03:08PM 50.4333 -104.8333 287° West 190 219 6,000 1,980 Climbing Winnipeg Center
03:09PM 50.4500 -104.9167 287° West 190 219 8,100 1,740 Climbing Winnipeg Center
03:10PM 50.4667 -105.0000 287° West 210 242 9,500 1,440 Climbing Winnipeg Center
03:11PM 50.5602 -105.2894 286° West  Level FlightAware Approximate
03:11PM 50.5000 -105.1000 298° West 230 265 11,000  Level Winnipeg Center
03:12PM 50.5167 -105.1833 287° West 240 276 12,400 1,380 Climbing Winnipeg Center
03:13PM 50.5500 -105.3000 294° West 240 276 13,900 1,380 Climbing Winnipeg Center
03:14PM 50.5667 -105.3833 288° West 240 276 15,200 1,260 Climbing Winnipeg Center
03:15PM 50.5833 -105.4833 285° West 240 276 16,500 1,200 Climbing Winnipeg Center
03:16PM 50.6167 -105.6000 294° West 250 288 17,600 1,080 Climbing Winnipeg Center
03:17PM 50.6167 -105.7167 270° West 250 288 18,700 960 Climbing Winnipeg Center
03:18PM 50.6500 -105.8167 298° West 250 288 19,600 960 Climbing Winnipeg Center
03:19PM 50.6500 -105.9333 270° West 250 288 20,700 900 Climbing Winnipeg Center
03:20PM 50.6833 -106.0167 302° West 250 288 21,500 660 Climbing Winnipeg Center
03:21PM 50.6833 -106.1167 270° West 250 288 22,100 600 Climbing Winnipeg Center
03:22PM 50.7167 -106.2333 294° West 260 299 22,800 660 Climbing Winnipeg Center
03:23PM 50.7167 -106.3333 270° West 260 299 23,500 600 Climbing Winnipeg Center
03:24PM 50.7333 -106.4333 285° West 260 299 24,000 240 Climbing Edmonton Center
03:25PM 50.7500 -106.5333 285° West 280 322 24,000  Level Edmonton Center
03:26PM 50.7667 -106.6667 281° West 290 334 24,000  Level Edmonton Center
03:27PM 50.7833 -106.8000 281° West 300 345 24,000  Level Edmonton Center
03:28PM 50.8167 -106.9333 292° West 300 345 24,000  Level Edmonton Center
03:29PM 50.8333 -107.0667 281° West 310 357 24,000  Level Edmonton Center
03:30PM 50.8500 -107.2167 280° West 310 357 24,000  Level Edmonton Center
03:31PM 50.8667 -107.3500 281° West 310 357 24,000  Level Edmonton Center
03:32PM 50.8833 -107.4833 281° West 310 357 24,000  Level Edmonton Center
03:33PM 50.9000 -107.6167 281° West 310 357 24,000  Level Edmonton Center
03:34PM 50.9333 -107.7500 292° West 310 357 24,000  Level Edmonton Center
03:35PM 50.9667 -107.9167 288° West 320 368 24,000  Level Winnipeg Center
03:36PM 50.9667 -108.0500 270° West 320 368 24,000  Level Winnipeg Center
03:37PM 50.9833 -108.1500 285° West 310 357 24,000  Level Edmonton Center
03:38PM 51.0000 -108.2833 281° West 310 357 24,000  Level Edmonton Center
03:39PM 51.0333 -108.4333 290° West 310 357 24,000  Level Edmonton Center
03:40PM 51.0500 -108.5667 281° West 310 357 24,000  Level Edmonton Center
03:41PM 51.0500 -108.7000 270° West 310 357 24,000  Level Edmonton Center
03:42PM 51.0833 -108.8333 292° West 310 357 24,000  Level Edmonton Center
03:43PM 51.1000 -108.9667 281° West 310 357 24,000  Level Edmonton Center
03:44PM 51.1167 -109.1000 281° West 310 357 24,000  Level Edmonton Center
03:45PM 51.1333 -109.2333 281° West 310 357 24,000  Level Edmonton Center
03:46PM 51.1500 -109.3833 280° West 310 357 24,000  Level Edmonton Center
03:47PM 51.1667 -109.5167 281° West 310 357 24,000  Level Edmonton Center
03:48PM 51.1833 -109.6500 281° West 310 357 24,000  Level Edmonton Center
03:49PM 51.2000 -109.7833 281° West 310 357 24,000  Level Edmonton Center
03:50PM 51.2167 -109.9167 281° West 310 357 24,000  Level Edmonton Center
03:51PM 51.2333 -110.0667 280° West 310 357 24,000  Level Edmonton Center
03:52PM 51.2333 -110.2000 270° West 310 357 24,000  Level Edmonton Center
03:53PM 51.2500 -110.3333 281° West 310 357 24,000  Level Edmonton Center
03:54PM 51.2333 -110.4667 259° West 310 357 24,000  Level Edmonton Center
03:55PM 51.2500 -110.6000 281° West 310 357 24,000  Level Edmonton Center
03:56PM 51.2500 -110.7333 270° West 310 357 24,000  Level Edmonton Center
03:57PM 51.2500 -110.9000 270° West 310 357 24,000  Level Edmonton Center
03:58PM 51.2500 -111.0333 270° West 310 357 24,000  Level Edmonton Center
03:59PM 51.2667 -111.1667 281° West 310 357 24,000  Level Edmonton Center
04:00PM 51.2667 -111.3000 270° West 310 357 24,000  Level Edmonton Center
04:01PM 51.2667 -111.4667 270° West 310 357 24,000  Level Edmonton Center
04:02PM 51.2833 -111.6000 281° West 320 368 24,000  Level Edmonton Center
04:03PM 51.2667 -111.7333 259° West 320 368 24,000  Level Edmonton Center
04:04PM 51.2833 -111.8833 280° West 320 368 24,000 -120 Level Edmonton Center
04:05PM 51.2833 -112.0167 270° West 320 368 23,800 -900 Descending Edmonton Center
04:06PM 51.2667 -112.1833 261° West 320 368 22,200 -1,560 Descending Edmonton Center
04:07PM 51.2833 -112.3167 281° West 320 368 20,700 -1,560 Descending Edmonton Center
04:08PM 51.2833 -112.4500 270° West 320 368 19,100 -1,560 Descending Edmonton Center
04:09PM 51.2833 -112.5833 270° West 320 368 17,600 -1,560 Descending Edmonton Center
04:10PM 51.2833 -112.7500 270° West 320 368 16,000 -1,500 Descending Edmonton Center
04:11PM 51.2833 -112.8833 270° West 300 345 14,600 -1,500 Descending Edmonton Center
04:12PM 51.2500 -113.0167 248° West 290 334 13,100 -1,440 Descending Edmonton Center
04:13PM 51.2333 -113.1167 255° West 290 334 11,800 -1,200 Descending Edmonton Center
04:14PM 51.2167 -113.2500 259° West 280 322 10,800 -1,020 Descending Edmonton Center
04:15PM 51.2000 -113.3833 259° West 280 322 9,800 -960 Descending Edmonton Center
04:16PM 51.2000 -113.4833 270° West 270 311 8,900 -900 Descending Edmonton Center
04:17PM 51.2000 -113.6333 270° West 270 311 8,000 -900 Descending Edmonton Center
04:18PM 51.2000 -113.7333 270° West 250 288 7,200 -840 Descending Edmonton Center
04:19PM 51.1833 -113.8333 255° West 220 253 6,400 -720 Descending Edmonton Center
04:20PM 51.1833 -113.9167 270° West 210 242 5,800 -660 Descending Edmonton Center
04:21PM 51.1667 -114.0000 252° West 180 207 5,100 -720 Descending Edmonton Center
04:22PM 51.1333 -114.0500 223° Southwest 160 184 4,400 -540 Descending Edmonton Center
04:24PM 51.0667 -114.0500 180° South 120 138 3,600 -420 Descending Edmonton Center